Sawyer County Airport
KHYR : rendu visible

Aérodrome :











RETROUVEZ-NOUS SUR...

 
LOGIN :

S'inscrire | Disclaimer

   EN    FR    IT 

 









Légende :    VFR   VFR Marginal   IFR   IFR Intensif   IFR Très Intensif
Visi : 
Plafond : 
>= 8 km
>= 3000ft
5 à 8 km
1000 à 3000 ft
1500m à 5 km
500 à 1000 ft
800 à 1500m
200 à 500 ft
< 800m
< 200 ft
Symboles :   Orages  Brouillard  Fortes neiges  Fortes précipitations  Vent > 20 kt






- Altitude de l'aérodrome : 1216 ft


KHYR - Sawyer County

DERNIER METAR :
  • 090823Z AUTO 13008KT 10SM SCT055 BKN085 OVC110 19/16 A2986 RMK AO2 LTG DSNT E-SW RAE22 TSE17 P0002 T01890161

METARs EXPIRÉS :
  • 090753Z AUTO 10008KT 7SM -TSRA FEW032 BKN070 OVC120 19/16 A2988 RMK AO2 LTG DSNT ALQDS RAB16 TSB43 SLP112 P0020 T01890161
  • 090749Z AUTO 07008KT 9SM -TSRA FEW032 BKN070 OVC090 19/16 A2988 RMK AO2 LTG DSNT ALQDS RAB16 TSB43 P0020
  • 090740Z AUTO 11007KT 3SM VCTS -RA BR FEW032 BKN070 OVC090 18/17 A2988 RMK AO2 LTG DSNT ALQDS RAB16 P0019 T01830167
  • 090727Z AUTO 04008KT 2 1/2SM VCTS +RA BR FEW036 OVC060 19/17 A2990 RMK AO2 LTG DSNT NW-NE RAB16 P0010 T01890167
  • 090653Z AUTO 34007G18KT 310V020 10SM FEW014 SCT029 BKN075 19/17 A2990 RMK AO2 LTG DSNT N SLP120 T01890167
  • 090553Z AUTO 00000KT 10SM BKN060 OVC075 19/17 A2985 RMK AO2 LTG DSNT NE RAE10 SLP102 P0001 60112 T01890172 10294 20183 403110172 50013

TAF KHYR
Valide du 09 à 08h jusqu'au 10 à 06h UTC


090807Z 0908/1006 04008KT P6SM VCTS FEW035CB OVC060
TEMPO 0908/0910 3SM -TSRA
FM091200 VRB04KT P6SM BKN180
FM091400 25006KT P6SM VCTS BKN180CB
FM100000 VRB03KT P6SM BKN250
FIR KZMP / Amérique du Nord



MET'MAP, la Météo Aéronautique d'un coup d'oeil ! - Copyright ORBIFLY Décembre 2007 - Disclaimer

ORBIFLY MET'MAP TEAM :

Programmation & Développement : Alexandra Zaïnal
Sur une idée originale de : Baudouin d'Aumeries
Assistance à la programmation : Marc-Olivier Méhu
Soutien technique & logistique : Manuel Goepfert

Contact : metmap@orbifly.com




SOURCES & CREDITS :

   NOAA       Earth
Advisory